createdAt,value
2023-02-22T00:01:47.453Z,35.42
2023-02-22T00:04:16.088Z,29.58
2023-02-22T00:06:42.693Z,33.40
2023-02-22T00:09:10.354Z,32.90
2023-02-22T00:11:38.649Z,37.88
2023-02-22T00:14:05.659Z,32.55
2023-02-22T00:16:32.258Z,38.67
2023-02-22T00:18:58.891Z,31.50
2023-02-22T00:21:25.424Z,32.72
2023-02-22T00:23:54.675Z,38.47
2023-02-22T00:26:23.463Z,31.48
2023-02-22T00:28:52.567Z,40.25
2023-02-22T00:31:20.306Z,39.33
2023-02-22T00:33:47.113Z,37.53
2023-02-22T00:36:14.529Z,36.70
2023-02-22T00:38:42.142Z,44.22
2023-02-22T00:41:09.101Z,32.90
2023-02-22T00:43:35.945Z,33.95
2023-02-22T00:46:02.717Z,37.28
2023-02-22T00:48:29.400Z,37.22
2023-02-22T00:50:56.033Z,36.50
2023-02-22T00:53:25.139Z,38.33
2023-02-22T00:55:52.042Z,40.45
2023-02-22T00:58:18.761Z,37.13
2023-02-22T01:00:45.829Z,44.08
2023-02-22T01:03:15.041Z,38.70
2023-02-22T01:05:42.110Z,37.47
2023-02-22T01:08:11.408Z,35.28
2023-02-22T01:10:39.365Z,37.88
2023-02-22T01:13:09.249Z,35.63
2023-02-22T01:15:39.137Z,38.08
2023-02-22T01:18:06.626Z,37.42
2023-02-22T01:20:33.361Z,37.40
2023-02-22T01:23:03.467Z,43.95
2023-02-22T01:25:31.378Z,46.70
2023-02-22T01:27:59.691Z,47.35
2023-02-22T01:30:29.690Z,37.92
2023-02-22T01:32:56.407Z,40.03
2023-02-22T01:35:27.890Z,45.85
2023-02-22T01:37:55.582Z,37.90
2023-02-22T01:40:42.001Z,45.70
2023-02-22T01:43:20.290Z,38.58
2023-02-22T01:45:52.583Z,43.35
2023-02-22T01:48:45.242Z,34.70
2023-02-22T01:51:19.262Z,43.83
2023-02-22T01:54:08.034Z,42.63
2023-02-22T01:56:38.693Z,46.58
2023-02-22T01:59:11.643Z,45.35
2023-02-22T02:01:39.885Z,46.35
2023-02-22T02:04:11.849Z,52.60
2023-02-22T02:09:11.609Z,42.53
2023-02-22T02:11:43.108Z,41.95
2023-02-22T02:14:11.606Z,48.33
2023-02-22T02:16:53.351Z,43.83
2023-02-22T02:19:32.588Z,51.60
2023-02-22T02:22:29.853Z,43.33
2023-02-22T02:25:10.885Z,40.10
2023-02-22T02:27:52.830Z,50.53
2023-02-22T02:30:47.256Z,47.13
2023-02-22T02:33:29.403Z,48.58
2023-02-22T02:38:45.980Z,51.05
2023-02-22T02:41:21.754Z,48.33
2023-02-22T02:43:57.835Z,48.47
2023-02-22T02:46:30.787Z,43.85
2023-02-22T02:49:01.435Z,44.97
2023-02-22T02:51:34.004Z,47.35
2023-02-22T02:54:02.561Z,47.85
2023-02-22T02:56:29.998Z,49.17
2023-02-22T02:58:56.807Z,52.13
2023-02-22T03:01:42.042Z,44.80
2023-02-22T03:04:56.335Z,46.33
2023-02-22T03:07:49.730Z,40.35
2023-02-22T03:10:28.223Z,43.40
2023-02-22T03:12:58.622Z,41.65
2023-02-22T03:15:49.846Z,46.35
2023-02-22T03:18:24.737Z,52.75
2023-02-22T03:21:14.284Z,45.42
2023-02-22T03:24:02.056Z,39.08
2023-02-22T03:26:41.419Z,42.15
2023-02-22T03:29:11.222Z,48.80
2023-02-22T03:31:48.484Z,48.10
2023-02-22T03:34:27.181Z,49.10
2023-02-22T03:36:59.743Z,45.75
2023-02-22T03:39:31.313Z,51.35
2023-02-22T03:42:04.740Z,41.33
2023-02-22T03:44:35.075Z,52.08
2023-02-22T03:47:06.715Z,40.70
2023-02-22T03:49:37.385Z,40.97
2023-02-22T03:52:05.167Z,46.05
2023-02-22T03:54:32.656Z,46.92
2023-02-22T03:57:08.532Z,42.90
2023-02-22T03:59:35.592Z,38.95
2023-02-22T04:02:02.210Z,37.50
2023-02-22T04:04:28.850Z,49.13
2023-02-22T04:06:55.495Z,41.55
2023-02-22T04:09:22.101Z,53.80
2023-02-22T04:11:48.747Z,48.28
2023-02-22T04:14:15.976Z,46.58
2023-02-22T04:16:42.717Z,46.72
2023-02-22T04:19:09.389Z,43.58
2023-02-22T04:21:35.936Z,39.67
2023-02-22T04:24:02.509Z,50.67
2023-02-22T04:26:29.120Z,42.92
2023-02-22T04:28:55.704Z,38.15
2023-02-22T04:31:22.277Z,43.63
2023-02-22T04:33:48.935Z,45.10
2023-02-22T04:36:16.147Z,44.15
2023-02-22T04:38:43.409Z,51.75
2023-02-22T04:41:10.001Z,45.97
2023-02-22T04:43:36.576Z,47.03
2023-02-22T04:46:04.444Z,42.30
2023-02-22T04:48:31.310Z,38.28
2023-02-22T04:50:57.879Z,40.78
2023-02-22T04:53:24.513Z,41.20
2023-02-22T04:55:51.077Z,37.42
2023-02-22T04:58:17.725Z,38.70
2023-02-22T05:00:44.444Z,39.95
2023-02-22T05:03:11.051Z,50.92
2023-02-22T05:05:37.812Z,41.83
2023-02-22T05:08:04.673Z,40.72
2023-02-22T05:10:31.335Z,35.30
2023-02-22T05:12:57.908Z,55.30
2023-02-22T05:15:25.407Z,44.47
2023-02-22T05:17:53.299Z,45.67
2023-02-22T05:20:29.638Z,40.72
2023-02-22T05:22:57.748Z,44.47
2023-02-22T05:25:25.216Z,42.78
2023-02-22T05:27:57.839Z,44.05
2023-02-22T05:30:31.249Z,52.55
2023-02-22T05:32:59.486Z,42.30
2023-02-22T05:35:27.493Z,49.40
2023-02-22T05:37:54.361Z,46.90
2023-02-22T05:40:23.464Z,46.72
2023-02-22T05:42:51.049Z,43.85
2023-02-22T05:45:19.632Z,45.13
2023-02-22T05:47:46.891Z,50.42
2023-02-22T05:50:15.702Z,48.55
2023-02-22T05:52:42.664Z,56.53
2023-02-22T05:55:11.407Z,47.33
2023-02-22T05:57:38.002Z,56.83
2023-02-22T06:00:08.361Z,51.92
2023-02-22T06:02:35.061Z,43.55
2023-02-22T06:05:01.655Z,33.88
2023-02-22T06:07:28.208Z,33.40
2023-02-22T06:09:54.798Z,35.03
2023-02-22T06:12:21.484Z,37.33
2023-02-22T06:14:48.064Z,41.70
2023-02-22T06:17:15.594Z,45.13
2023-02-22T06:19:42.316Z,35.78
2023-02-22T06:22:15.816Z,37.63
2023-02-22T06:24:42.488Z,45.92
2023-02-22T06:27:09.075Z,47.28
2023-02-22T06:29:35.673Z,51.17
2023-02-22T06:32:02.328Z,44.58
2023-02-22T06:34:28.944Z,40.92
2023-02-22T06:36:55.508Z,44.30
2023-02-22T06:39:22.198Z,52.97
2023-02-22T06:41:50.560Z,60.88
2023-02-22T06:44:17.195Z,48.75
2023-02-22T06:46:49.351Z,57.65
2023-02-22T06:49:15.947Z,49.70
2023-02-22T06:51:43.066Z,58.20
2023-02-22T06:54:09.603Z,59.17
2023-02-22T06:56:36.159Z,53.70
2023-02-22T06:59:02.958Z,61.70
2023-02-22T07:01:30.066Z,56.67
2023-02-22T07:03:57.037Z,57.78
2023-02-22T07:06:24.296Z,62.97
2023-02-22T07:08:50.881Z,60.60
2023-02-22T07:11:18.010Z,62.58
2023-02-22T07:13:44.716Z,62.85
2023-02-22T07:16:11.295Z,61.03
2023-02-22T07:18:38.742Z,47.33
2023-02-22T07:21:06.307Z,50.63
2023-02-22T07:23:33.355Z,53.67
2023-02-22T07:26:01.492Z,62.47
2023-02-22T07:28:28.446Z,55.10
2023-02-22T07:30:55.248Z,47.15
2023-02-22T07:33:21.845Z,47.08
2023-02-22T07:35:49.951Z,49.83
2023-02-22T07:38:19.773Z,54.40
2023-02-22T07:40:46.814Z,56.53
2023-02-22T07:43:18.058Z,50.08
2023-02-22T07:45:45.839Z,48.70
2023-02-22T07:48:14.644Z,44.72
2023-02-22T07:50:42.260Z,39.50
2023-02-22T07:53:14.684Z,47.03
2023-02-22T07:55:41.307Z,41.95
2023-02-22T07:58:09.261Z,53.42
2023-02-22T08:00:39.411Z,53.45
2023-02-22T08:03:09.291Z,45.40
2023-02-22T08:05:38.228Z,45.83
2023-02-22T08:08:06.247Z,41.65
2023-02-22T08:10:35.161Z,47.28
2023-02-22T08:13:02.310Z,42.10
2023-02-22T08:15:31.773Z,46.05
2023-02-22T08:18:01.014Z,39.65
2023-02-22T08:20:29.146Z,44.17
2023-02-22T08:22:56.609Z,45.10
2023-02-22T08:25:25.919Z,47.33
2023-02-22T08:27:58.746Z,52.80
2023-02-22T08:30:25.894Z,45.70
2023-02-22T08:32:52.564Z,47.40
2023-02-22T08:35:21.090Z,38.78
2023-02-22T08:37:53.433Z,46.58
2023-02-22T08:40:25.051Z,42.95
2023-02-22T08:42:52.100Z,52.30
2023-02-22T08:45:18.721Z,46.92
2023-02-22T08:47:45.613Z,45.67
2023-02-22T08:50:27.702Z,51.67
2023-02-22T08:55:24.477Z,52.88
2023-02-22T08:57:51.081Z,54.53
2023-02-22T09:00:25.364Z,60.90
2023-02-22T09:02:53.019Z,59.00
2023-02-22T09:05:20.396Z,70.35
2023-02-22T09:07:47.532Z,71.72
2023-02-22T09:10:18.153Z,71.43
2023-02-22T09:12:44.835Z,71.55
2023-02-22T09:15:12.493Z,64.30
2023-02-22T09:17:39.269Z,78.47
2023-02-22T09:20:08.110Z,75.60
2023-02-22T09:22:34.694Z,70.00
2023-02-22T09:25:11.280Z,67.25
2023-02-22T09:27:44.073Z,71.00
2023-02-22T09:30:37.350Z,66.13
2023-02-22T09:33:05.943Z,70.38
2023-02-22T09:35:36.305Z,62.25
2023-02-22T09:38:08.193Z,51.95
2023-02-22T09:40:44.853Z,55.78
2023-02-22T09:43:33.849Z,51.10
2023-02-22T09:46:13.453Z,55.95
2023-02-22T09:49:19.500Z,62.75
2023-02-22T09:52:11.954Z,55.63
2023-02-22T09:54:45.126Z,51.10
2023-02-22T09:57:35.174Z,58.97
2023-02-22T10:00:22.737Z,51.45
2023-02-22T10:02:59.406Z,43.45
2023-02-22T10:05:37.948Z,44.35
2023-02-22T10:08:10.237Z,44.97
2023-02-22T10:10:46.033Z,45.78
2023-02-22T10:13:28.106Z,39.72
2023-02-22T10:15:58.386Z,41.20
2023-02-22T10:18:44.048Z,37.05
2023-02-22T10:21:31.905Z,45.97
2023-02-22T10:24:38.411Z,39.03
2023-02-22T10:27:41.688Z,32.38
2023-02-22T10:30:24.915Z,40.70
2023-02-22T10:33:15.863Z,45.53
2023-02-22T10:35:46.919Z,40.70
2023-02-22T10:38:23.651Z,41.90
2023-02-22T10:40:59.286Z,49.85
2023-02-22T10:43:25.909Z,46.47
2023-02-22T10:46:03.685Z,45.80
2023-02-22T10:48:32.777Z,40.63
2023-02-22T10:51:02.166Z,40.78
2023-02-22T10:53:30.600Z,43.75
2023-02-22T10:56:21.388Z,49.17
2023-02-22T10:58:57.585Z,48.10
2023-02-22T11:01:42.195Z,35.50
2023-02-22T11:04:15.967Z,39.70
2023-02-22T11:06:45.944Z,38.63
2023-02-22T11:09:18.850Z,38.17
2023-02-22T11:11:47.387Z,42.10
2023-02-22T11:14:26.368Z,43.65
2023-02-22T11:16:56.878Z,34.40
2023-02-22T11:19:32.873Z,35.80
2023-02-22T11:22:05.628Z,30.38
2023-02-22T11:24:43.574Z,46.50
2023-02-22T11:27:31.746Z,34.63
2023-02-22T11:30:08.562Z,37.60
2023-02-22T11:32:36.557Z,32.72
2023-02-22T11:35:27.843Z,36.35
2023-02-22T11:38:11.811Z,32.55
2023-02-22T11:40:40.172Z,35.47
2023-02-22T11:43:12.136Z,32.95
2023-02-22T11:48:21.033Z,33.95
2023-02-22T11:51:10.086Z,28.77
2023-02-22T11:54:09.127Z,21.38
2023-02-22T11:56:38.108Z,26.75
2023-02-22T11:59:08.149Z,25.38
2023-02-22T12:01:56.983Z,24.55
2023-02-22T12:04:47.697Z,27.77
2023-02-22T12:07:26.384Z,23.15
2023-02-22T12:10:20.077Z,26.25
2023-02-22T12:13:05.121Z,26.42
2023-02-22T12:15:47.663Z,28.33
2023-02-22T12:18:34.071Z,26.38
2023-02-22T12:21:05.623Z,27.15
2023-02-22T12:24:16.471Z,22.15
2023-02-22T12:27:01.348Z,23.30
2023-02-22T12:29:57.801Z,22.95
2023-02-22T12:32:40.508Z,28.20
2023-02-22T12:35:20.826Z,33.38
2023-02-22T12:38:16.889Z,23.17
2023-02-22T12:40:57.113Z,24.45
2023-02-22T12:43:35.269Z,26.13
2023-02-22T12:46:19.000Z,27.42
2023-02-22T12:49:01.327Z,26.20
2023-02-22T12:54:26.048Z,22.52
2023-02-22T12:57:11.344Z,23.88
2023-02-22T12:59:47.114Z,23.90
2023-02-22T13:02:35.907Z,33.40
2023-02-22T13:05:02.745Z,30.02
2023-02-22T13:07:40.167Z,29.65
2023-02-22T13:10:23.771Z,30.02
2023-02-22T13:13:03.841Z,27.98
2023-02-22T13:15:43.068Z,24.98
2023-02-22T13:18:10.696Z,26.20
2023-02-22T13:20:45.690Z,27.27
2023-02-22T13:23:35.451Z,27.00
2023-02-22T13:26:31.669Z,30.73
2023-02-22T13:29:23.157Z,28.27
2023-02-22T13:31:55.988Z,27.30
2023-02-22T13:34:56.858Z,26.85
2023-02-22T13:37:41.835Z,27.35
2023-02-22T13:40:30.256Z,28.10
2023-02-22T13:43:02.663Z,23.55
2023-02-22T13:45:54.049Z,27.90
2023-02-22T13:48:54.117Z,23.05
2023-02-22T13:51:23.554Z,26.63
2023-02-22T13:53:58.579Z,22.10
2023-02-22T13:56:26.725Z,22.55
2023-02-22T13:58:57.284Z,26.65
2023-02-22T14:01:46.380Z,19.75
2023-02-22T14:04:37.186Z,26.90
2023-02-22T14:07:18.717Z,26.10
2023-02-22T14:09:51.312Z,23.13
2023-02-22T14:12:30.179Z,25.63
2023-02-22T14:15:28.597Z,24.85
2023-02-22T14:18:05.072Z,29.63
2023-02-22T14:20:37.153Z,25.92
2023-02-22T14:25:49.924Z,26.70
2023-02-22T14:28:46.227Z,25.98
2023-02-22T14:31:33.235Z,23.92
2023-02-22T14:34:14.175Z,26.20
2023-02-22T14:37:02.065Z,27.08
2023-02-22T14:39:52.022Z,21.52
2023-02-22T14:42:33.095Z,23.95
2023-02-22T14:45:05.889Z,26.25
2023-02-22T14:47:39.940Z,26.35
2023-02-22T14:50:23.236Z,24.90
2023-02-22T14:53:01.747Z,25.73
2023-02-22T14:55:31.503Z,26.17
2023-02-22T14:58:08.813Z,29.05
2023-02-22T15:00:42.064Z,28.30
2023-02-22T15:03:37.329Z,27.35
2023-02-22T15:06:15.054Z,27.75
2023-02-22T15:08:42.751Z,28.60
2023-02-22T15:11:21.091Z,28.48
2023-02-22T15:13:53.861Z,36.45
2023-02-22T15:16:23.303Z,31.45
2023-02-22T15:18:55.527Z,32.78
2023-02-22T15:21:26.227Z,35.83
2023-02-22T15:23:55.836Z,40.00
2023-02-22T15:26:31.560Z,32.25
2023-02-22T15:28:59.668Z,32.55
2023-02-22T15:31:26.308Z,27.30
2023-02-22T15:33:54.886Z,27.95
2023-02-22T15:36:27.005Z,31.40
2023-02-22T15:41:31.582Z,28.88
2023-02-22T15:44:07.990Z,36.00
2023-02-22T15:46:40.759Z,32.20
2023-02-22T15:49:10.282Z,45.60
2023-02-22T15:51:40.440Z,32.63
2023-02-22T15:54:13.300Z,29.88
2023-02-22T15:56:55.549Z,35.60
2023-02-22T15:59:33.325Z,28.95
2023-02-22T16:02:00.600Z,29.65
2023-02-22T16:04:30.868Z,34.35
2023-02-22T16:07:08.154Z,28.70
2023-02-22T16:09:34.879Z,32.95
2023-02-22T16:12:24.791Z,29.00
2023-02-22T16:14:54.472Z,28.80
2023-02-22T16:17:35.364Z,29.20
2023-02-22T16:20:21.887Z,31.75
2023-02-22T16:22:49.863Z,24.15
2023-02-22T16:25:19.617Z,34.08
2023-02-22T16:28:09.787Z,32.08
2023-02-22T16:30:40.362Z,26.25
2023-02-22T16:33:13.810Z,30.45
2023-02-22T16:35:41.047Z,34.25
2023-02-22T16:38:16.897Z,24.80
2023-02-22T16:40:55.723Z,25.48
2023-02-22T16:43:25.265Z,25.13
2023-02-22T16:45:53.254Z,26.55
2023-02-22T16:48:27.512Z,30.73
2023-02-22T16:50:56.909Z,26.70
2023-02-22T16:53:25.512Z,27.02
2023-02-22T16:55:57.703Z,27.98
2023-02-22T16:58:29.331Z,24.50
2023-02-22T17:00:57.444Z,27.05
2023-02-22T17:03:25.397Z,30.67
2023-02-22T17:05:52.460Z,32.25
2023-02-22T17:08:19.086Z,27.35
2023-02-22T17:10:46.453Z,31.15
2023-02-22T17:13:23.588Z,27.42
2023-02-22T17:15:51.315Z,29.27
2023-02-22T17:18:22.931Z,30.30
2023-02-22T17:20:51.485Z,32.63
2023-02-22T17:23:19.072Z,28.77
2023-02-22T17:25:50.387Z,43.08
2023-02-22T17:28:17.274Z,33.63
2023-02-22T17:30:45.318Z,42.08
2023-02-22T17:33:16.509Z,47.45
2023-02-22T17:35:44.100Z,38.60
2023-02-22T17:38:10.834Z,36.17
2023-02-22T17:40:39.792Z,37.05
2023-02-22T17:43:08.877Z,37.63
2023-02-22T17:45:39.093Z,39.67
2023-02-22T17:48:05.977Z,39.72
2023-02-22T17:50:32.664Z,39.47
2023-02-22T17:53:01.993Z,41.13
2023-02-22T17:55:28.652Z,38.83
2023-02-22T17:58:00.252Z,48.83
2023-02-22T18:00:33.187Z,44.03
2023-02-22T18:03:07.864Z,51.10
2023-02-22T18:05:40.613Z,45.65
2023-02-22T18:08:07.835Z,45.38
2023-02-22T18:10:34.749Z,47.35
2023-02-22T18:13:02.090Z,51.63
2023-02-22T18:15:29.155Z,50.03
2023-02-22T18:17:56.094Z,48.78
2023-02-22T18:20:31.134Z,41.72
2023-02-22T18:22:59.051Z,51.22
2023-02-22T18:25:27.219Z,50.33
2023-02-22T18:27:55.013Z,49.80
2023-02-22T18:30:21.918Z,79.00
2023-02-22T18:32:48.504Z,59.22
2023-02-22T18:35:15.140Z,53.58
2023-02-22T18:37:41.772Z,52.40
2023-02-22T18:40:10.537Z,47.40
2023-02-22T18:42:39.163Z,46.17
2023-02-22T18:45:07.368Z,41.90
2023-02-22T18:47:42.733Z,62.42
2023-02-22T18:50:11.775Z,54.45
2023-02-22T18:52:45.786Z,52.25
2023-02-22T18:55:19.929Z,54.08
2023-02-22T18:57:47.031Z,67.15
2023-02-22T19:00:16.704Z,64.03
2023-02-22T19:02:43.658Z,60.58
2023-02-22T19:05:17.378Z,62.38
2023-02-22T19:07:45.004Z,50.50
2023-02-22T19:10:11.608Z,81.07
2023-02-22T19:12:38.263Z,65.93
2023-02-22T19:15:05.060Z,55.58
2023-02-22T19:17:32.611Z,59.78
2023-02-22T19:19:59.205Z,66.22
2023-02-22T19:22:32.786Z,56.53
2023-02-22T19:25:01.264Z,69.80
2023-02-22T19:27:34.164Z,65.75
2023-02-22T19:30:00.801Z,69.38
2023-02-22T19:32:27.430Z,69.10
2023-02-22T19:35:02.234Z,67.55
2023-02-22T19:37:34.927Z,54.78
2023-02-22T19:40:06.627Z,53.95
2023-02-22T19:42:33.230Z,52.63
2023-02-22T19:44:59.848Z,49.88
2023-02-22T19:47:26.436Z,55.70
2023-02-22T19:49:53.323Z,58.80
2023-02-22T19:52:19.876Z,62.65
2023-02-22T19:54:46.442Z,51.53
2023-02-22T19:57:13.465Z,57.58
2023-02-22T19:59:40.304Z,60.83
2023-02-22T20:02:10.487Z,71.28
2023-02-22T20:04:37.418Z,67.18
2023-02-22T20:07:04.082Z,82.07
2023-02-22T20:09:39.389Z,89.47
2023-02-22T20:12:06.706Z,76.47
2023-02-22T20:14:34.188Z,78.53
2023-02-22T20:17:01.558Z,85.60
2023-02-22T20:19:28.642Z,82.97
2023-02-22T20:21:56.002Z,84.63
2023-02-22T20:24:23.792Z,74.47
2023-02-22T20:26:51.031Z,88.82
2023-02-22T20:29:18.010Z,85.80
2023-02-22T20:31:49.883Z,85.25
2023-02-22T20:34:16.502Z,85.20
2023-02-22T20:36:43.163Z,77.72
2023-02-22T20:39:13.542Z,77.25
2023-02-22T20:41:46.187Z,93.88
2023-02-22T20:44:15.414Z,83.22
2023-02-22T20:46:43.412Z,87.28
2023-02-22T20:49:13.607Z,86.15
2023-02-22T20:51:40.814Z,92.28
2023-02-22T20:54:10.483Z,92.40
2023-02-22T20:56:38.576Z,101.88
2023-02-22T20:59:05.390Z,98.97
2023-02-22T21:01:32.415Z,85.85
2023-02-22T21:04:03.680Z,94.78
2023-02-22T21:06:31.018Z,94.47
2023-02-22T21:09:00.112Z,73.85
2023-02-22T21:11:30.431Z,67.03
2023-02-22T21:13:57.343Z,79.10
2023-02-22T21:16:27.052Z,80.10
2023-02-22T21:18:56.309Z,72.95
2023-02-22T21:21:22.828Z,78.80
2023-02-22T21:23:51.772Z,71.53
2023-02-22T21:26:23.586Z,80.93
2023-02-22T21:28:51.860Z,78.63
2023-02-22T21:31:21.796Z,78.70
2023-02-22T21:33:53.123Z,73.13
2023-02-22T21:36:25.110Z,66.65
2023-02-22T21:38:57.236Z,72.88
2023-02-22T21:41:27.816Z,73.55
2023-02-22T21:43:56.090Z,74.68
2023-02-22T21:46:23.880Z,74.97
2023-02-22T21:48:50.854Z,70.78
2023-02-22T21:51:19.745Z,91.07
2023-02-22T21:53:52.248Z,78.22
2023-02-22T21:56:24.207Z,90.25
2023-02-22T22:01:31.556Z,82.22
2023-02-22T22:06:28.253Z,81.30
2023-02-22T22:08:54.945Z,88.90
2023-02-22T22:11:22.085Z,90.13
2023-02-22T22:13:49.207Z,77.38
2023-02-22T22:16:19.406Z,79.20
2023-02-22T22:18:46.878Z,91.43
2023-02-22T22:21:17.470Z,93.00
2023-02-22T22:23:47.037Z,106.05
2023-02-22T22:26:16.375Z,92.28
2023-02-22T22:28:46.307Z,108.88
2023-02-22T22:31:14.170Z,111.25
2023-02-22T22:33:42.520Z,107.50
2023-02-22T22:36:10.834Z,98.07
2023-02-22T22:38:40.905Z,98.10
2023-02-22T22:41:09.623Z,83.75
2023-02-22T22:43:37.544Z,76.13
2023-02-22T22:46:06.040Z,71.28
2023-02-22T22:48:36.217Z,71.95
2023-02-22T22:51:09.357Z,64.85
2023-02-22T22:53:41.739Z,61.10
2023-02-22T22:56:14.582Z,53.92
2023-02-22T22:58:44.006Z,58.03
2023-02-22T23:01:18.271Z,53.45
2023-02-22T23:03:55.097Z,47.08
2023-02-22T23:06:27.746Z,49.92
2023-02-22T23:09:00.075Z,49.83
2023-02-22T23:11:29.501Z,45.65
2023-02-22T23:13:56.601Z,42.85
2023-02-22T23:16:24.327Z,43.08
2023-02-22T23:18:51.466Z,44.72
2023-02-22T23:21:24.364Z,42.25
2023-02-22T23:23:55.828Z,44.35
2023-02-22T23:26:22.574Z,54.72
2023-02-22T23:28:49.199Z,63.70
2023-02-22T23:31:18.021Z,64.15
2023-02-22T23:33:48.351Z,59.30
2023-02-22T23:36:16.341Z,61.00
2023-02-22T23:38:43.767Z,29.75
2023-02-22T23:41:12.924Z,27.58
2023-02-22T23:43:40.452Z,28.23
2023-02-22T23:46:10.861Z,24.65
2023-02-22T23:48:46.742Z,25.40
2023-02-22T23:51:16.355Z,25.92
2023-02-22T23:53:46.187Z,21.90
2023-02-22T23:56:15.150Z,19.90
2023-02-22T23:58:42.403Z,23.05
